Portada
METAR-TAF:

METAR-TAF

Aeroports :

Le Havre, França

latitud: 49-31N, longitud: 000-04E, altitud: 100 m

Observació

L'informe es va fer fa 15 minuts, a les 12:00 UTC
Vent 6 kt del Nord/Nord-Oest, variant entre Nord-Oest i Nord
Temperatura 21°C
Humitat 49%
Pressió 1023 hPa
Visibilitat 10 km o més
sense núvols per sota de 1500 mi sense presència de cumulonimbus.

METAR: LFOH 091200Z AUTO 34006KT 310V010 CAVOK 21/10 Q1023

Hora: 14:15 (12:15 UTC)


TAF: manca

Observacions i pronòstics meteorològics de més de 4000 aeroports (METAR i TAF).

Les estacions disponibles són els punts grocs i vermells al mapa.

Posi el ratolí al punt desitjat per veure el nom de l'estació.

Feu clic per veure les observacions i els pronòstics meteorològics.

Per canviar el mapa: feu clic els botons verds amb una creu de color negre per apropar; al botó verd amb un guió per allunyar la imatge; o en les fletxes verdes per a mapes adjacents.


METAR-TAF: